Pagrindinis puslapis
METAR-TAF:

METAR-TAF

Oro uostai :

Ainas, Jungtiniai Arabų Emyratai

platuma: 24-16N, ilguma: 055-36E, Aukštis: 265 m

Dabartinis oras

Ataskaita buvo paskelbta 1 valandą ir 0 minutes, ne 12:00 UTC
Vėjas 6 kt iš Vakarų/Pietvakarių, svyruoja nuo Pietų/Pietvakarių ir Vakarų
Temperatūra 32°C
Drėgmė 16%
Slėgis 1008 hPa
Matomumas 10 km arba daugiau
nėra debesų žemiau 1500 m ir nėra kamuolinių lietaus debesų

METAR: OMAL 201200Z 24006KT 200V280 CAVOK 32/03 Q1008 NOSIG

Laikas: 17:00 (13:00 UTC)

Prognozė

Ataskaita buvo paskelbta 2 valandos ir 0 minutes, ne 11:00 UTC
Prognozė galioja nuo 20 metu 12 UTC su 21 metu 18 UTC
Vėjas 7 kt iš Vakarų/Šiaurės Vakarų
Matomumas: 8000 m
Tapsmas
nuo 20 metu 18 UTC su 20 metu 20 UTC
Vėjas 5 kt iš Šiaurės/Šiaurės Rytų
Tapsmas
nuo 21 metu 10 UTC su 21 metu 12 UTC
Vėjas 10 kt iš Šiaurės/Šiaurės Vakarų

TAF: OMAL 201100Z 2012/2118 30007KT 8000 NSC BECMG 2018/2020 03005KT BECMG 2110/2112 34010KT

Orai ataskaitas ir orų prognozės (METAR, TAF).

turimą stotys yra geltonos ir raudonos taškus žemėlapyje.

Perkelti pele per norėdami pamatyti stoties vardą.

Tada spustelėkite, norėdami matyti oro stebėjimo ir prognozės.

Norėdami pakeisti žemėlapį: spustelėkite ant žalios mygtukų su juodo kryžiaus žemyn,; žalią mygtuką su brūkšneliu, jei norite nutolinti; arba žalių rodyklių gretimoms žemėlapius.


METAR-TAF: